sensor_id;sensor_type;location;lat;lon;timestamp;pressure;altitude;pressure_sealevel;temperature;humidity
55424;BME280;41294;42.666;23.350;2023-04-23T00:00:50;94886.44;;;10.16;91.52
55424;BME280;41294;42.666;23.350;2023-04-23T00:03:17;94892.09;;;10.05;92.16
55424;BME280;41294;42.666;23.350;2023-04-23T00:05:43;94895.97;;;9.92;93.07
55424;BME280;41294;42.666;23.350;2023-04-23T00:08:09;94883.22;;;9.81;93.58
55424;BME280;41294;42.666;23.350;2023-04-23T00:10:36;94885.41;;;9.83;93.75
55424;BME280;41294;42.666;23.350;2023-04-23T00:13:02;94890.22;;;9.76;93.80
55424;BME280;41294;42.666;23.350;2023-04-23T00:15:28;94890.88;;;9.58;95.42
55424;BME280;41294;42.666;23.350;2023-04-23T00:17:54;94882.09;;;9.52;95.81
55424;BME280;41294;42.666;23.350;2023-04-23T00:20:19;94882.31;;;9.67;95.06
55424;BME280;41294;42.666;23.350;2023-04-23T00:22:45;94894.31;;;9.77;94.29
55424;BME280;41294;42.666;23.350;2023-04-23T00:25:11;94901.75;;;9.78;93.49
55424;BME280;41294;42.666;23.350;2023-04-23T00:27:36;94895.03;;;9.77;93.36
55424;BME280;41294;42.666;23.350;2023-04-23T00:30:03;94889.91;;;9.74;93.38
55424;BME280;41294;42.666;23.350;2023-04-23T00:32:29;94889.13;;;9.55;94.95
55424;BME280;41294;42.666;23.350;2023-04-23T00:34:54;94889.53;;;9.54;94.59
55424;BME280;41294;42.666;23.350;2023-04-23T00:37:20;94878.97;;;9.45;94.92
55424;BME280;41294;42.666;23.350;2023-04-23T00:39:46;94880.63;;;9.51;95.07
55424;BME280;41294;42.666;23.350;2023-04-23T00:42:11;94877.72;;;9.58;94.30
55424;BME280;41294;42.666;23.350;2023-04-23T00:44:38;94879.34;;;9.56;94.46
55424;BME280;41294;42.666;23.350;2023-04-23T00:47:05;94881.00;;;9.41;95.25
55424;BME280;41294;42.666;23.350;2023-04-23T00:49:35;94885.34;;;9.35;95.72
55424;BME280;41294;42.666;23.350;2023-04-23T00:52:02;94882.47;;;9.42;94.89
55424;BME280;41294;42.666;23.350;2023-04-23T00:54:28;94883.06;;;9.46;93.82
55424;BME280;41294;42.666;23.350;2023-04-23T00:56:56;94880.44;;;9.46;94.17
55424;BME280;41294;42.666;23.350;2023-04-23T00:59:24;94879.72;;;9.45;93.71
55424;BME280;41294;42.666;23.350;2023-04-23T01:01:50;94882.66;;;9.26;94.41
55424;BME280;41294;42.666;23.350;2023-04-23T01:04:17;94881.31;;;9.12;95.44
55424;BME280;41294;42.666;23.350;2023-04-23T01:06:43;94886.03;;;9.26;95.28
55424;BME280;41294;42.666;23.350;2023-04-23T01:09:11;94894.22;;;9.28;94.65
55424;BME280;41294;42.666;23.350;2023-04-23T01:11:42;94885.19;;;9.29;94.92
55424;BME280;41294;42.666;23.350;2023-04-23T01:14:08;94884.31;;;9.32;94.31
55424;BME280;41294;42.666;23.350;2023-04-23T01:16:34;94881.28;;;9.34;94.34
55424;BME280;41294;42.666;23.350;2023-04-23T01:19:00;94876.94;;;9.18;94.43
55424;BME280;41294;42.666;23.350;2023-04-23T01:21:27;94875.94;;;9.16;95.24
55424;BME280;41294;42.666;23.350;2023-04-23T01:23:53;94876.63;;;9.16;94.83
55424;BME280;41294;42.666;23.350;2023-04-23T01:26:20;94882.25;;;9.27;94.29
55424;BME280;41294;42.666;23.350;2023-04-23T01:28:47;94882.97;;;9.28;94.32
55424;BME280;41294;42.666;23.350;2023-04-23T01:31:13;94885.28;;;9.26;94.07
55424;BME280;41294;42.666;23.350;2023-04-23T01:33:39;94884.97;;;9.15;94.29
55424;BME280;41294;42.666;23.350;2023-04-23T01:36:06;94891.97;;;9.18;94.03
55424;BME280;41294;42.666;23.350;2023-04-23T01:38:33;94887.16;;;9.16;94.15
55424;BME280;41294;42.666;23.350;2023-04-23T01:40:59;94901.38;;;9.06;94.71
55424;BME280;41294;42.666;23.350;2023-04-23T01:43:25;94892.47;;;9.04;94.81
55424;BME280;41294;42.666;23.350;2023-04-23T01:45:51;94893.81;;;8.87;95.89
55424;BME280;41294;42.666;23.350;2023-04-23T01:48:17;94889.44;;;8.72;96.75
55424;BME280;41294;42.666;23.350;2023-04-23T01:50:43;94894.44;;;8.57;97.80
55424;BME280;41294;42.666;23.350;2023-04-23T01:53:09;94899.81;;;8.75;97.55
55424;BME280;41294;42.666;23.350;2023-04-23T01:55:37;94891.25;;;8.75;96.63
55424;BME280;41294;42.666;23.350;2023-04-23T01:58:03;94893.88;;;8.75;96.81
55424;BME280;41294;42.666;23.350;2023-04-23T02:00:29;94894.81;;;8.68;96.98
55424;BME280;41294;42.666;23.350;2023-04-23T02:02:55;94901.69;;;8.53;97.71
55424;BME280;41294;42.666;23.350;2023-04-23T02:05:20;94892.88;;;8.60;97.63
55424;BME280;41294;42.666;23.350;2023-04-23T02:07:50;94902.31;;;8.57;97.31
55424;BME280;41294;42.666;23.350;2023-04-23T02:10:15;94892.50;;;8.70;97.11
55424;BME280;41294;42.666;23.350;2023-04-23T02:12:41;94896.06;;;8.76;96.01
55424;BME280;41294;42.666;23.350;2023-04-23T02:15:08;94905.94;;;8.72;95.83
55424;BME280;41294;42.666;23.350;2023-04-23T02:17:34;94896.88;;;8.73;95.54
55424;BME280;41294;42.666;23.350;2023-04-23T02:19:59;94895.13;;;8.70;95.70
55424;BME280;41294;42.666;23.350;2023-04-23T02:22:26;94899.69;;;8.57;96.34
55424;BME280;41294;42.666;23.350;2023-04-23T02:24:53;94909.13;;;8.55;96.51
55424;BME280;41294;42.666;23.350;2023-04-23T02:27:19;94908.22;;;8.49;96.67
55424;BME280;41294;42.666;23.350;2023-04-23T02:29:45;94909.25;;;8.51;96.54
55424;BME280;41294;42.666;23.350;2023-04-23T02:32:10;94909.88;;;8.55;96.48
55424;BME280;41294;42.666;23.350;2023-04-23T02:34:36;94910.41;;;8.50;96.19
55424;BME280;41294;42.666;23.350;2023-04-23T02:37:02;94904.84;;;8.48;96.07
55424;BME280;41294;42.666;23.350;2023-04-23T02:39:29;94901.28;;;8.55;95.24
55424;BME280;41294;42.666;23.350;2023-04-23T02:41:55;94893.03;;;8.65;94.76
55424;BME280;41294;42.666;23.350;2023-04-23T02:44:20;94896.28;;;8.69;94.69
55424;BME280;41294;42.666;23.350;2023-04-23T02:46:46;94893.81;;;8.53;95.62
55424;BME280;41294;42.666;23.350;2023-04-23T02:49:12;94907.69;;;8.41;96.49
55424;BME280;41294;42.666;23.350;2023-04-23T02:51:38;94902.28;;;8.23;97.09
55424;BME280;41294;42.666;23.350;2023-04-23T02:54:04;94905.81;;;8.29;97.27
55424;BME280;41294;42.666;23.350;2023-04-23T02:56:30;94907.94;;;8.34;96.97
55424;BME280;41294;42.666;23.350;2023-04-23T02:58:55;94907.63;;;8.32;96.91
55424;BME280;41294;42.666;23.350;2023-04-23T03:01:21;94910.38;;;8.17;97.87
55424;BME280;41294;42.666;23.350;2023-04-23T03:03:46;94908.06;;;8.31;97.38
55424;BME280;41294;42.666;23.350;2023-04-23T03:06:12;94910.75;;;8.40;96.65
55424;BME280;41294;42.666;23.350;2023-04-23T03:08:37;94915.81;;;8.34;96.56
55424;BME280;41294;42.666;23.350;2023-04-23T03:11:03;94917.78;;;8.30;96.60
55424;BME280;41294;42.666;23.350;2023-04-23T03:13:28;94916.63;;;8.31;96.43
55424;BME280;41294;42.666;23.350;2023-04-23T03:15:54;94917.50;;;8.28;96.83
55424;BME280;41294;42.666;23.350;2023-04-23T03:18:20;94918.34;;;8.25;96.86
55424;BME280;41294;42.666;23.350;2023-04-23T03:20:45;94920.31;;;8.21;96.95
55424;BME280;41294;42.666;23.350;2023-04-23T03:23:11;94925.56;;;8.21;96.87
55424;BME280;41294;42.666;23.350;2023-04-23T03:25:37;94920.94;;;8.13;97.63
55424;BME280;41294;42.666;23.350;2023-04-23T03:28:02;94932.38;;;8.19;97.38
55424;BME280;41294;42.666;23.350;2023-04-23T03:30:28;94929.75;;;8.19;96.90
55424;BME280;41294;42.666;23.350;2023-04-23T03:32:56;94926.63;;;8.12;97.37
55424;BME280;41294;42.666;23.350;2023-04-23T03:35:23;94933.00;;;8.11;97.54
55424;BME280;41294;42.666;23.350;2023-04-23T03:37:48;94925.88;;;8.11;97.61
55424;BME280;41294;42.666;23.350;2023-04-23T03:40:14;94932.91;;;8.02;98.13
55424;BME280;41294;42.666;23.350;2023-04-23T03:42:40;94930.28;;;8.14;97.84
55424;BME280;41294;42.666;23.350;2023-04-23T03:45:06;94935.81;;;8.04;98.01
55424;BME280;41294;42.666;23.350;2023-04-23T03:47:31;94923.91;;;8.15;98.29
55424;BME280;41294;42.666;23.350;2023-04-23T03:49:57;94936.69;;;8.25;97.61
55424;BME280;41294;42.666;23.350;2023-04-23T03:52:22;94935.66;;;8.23;97.17
55424;BME280;41294;42.666;23.350;2023-04-23T03:54:47;94935.00;;;8.07;97.74
55424;BME280;41294;42.666;23.350;2023-04-23T03:57:13;94932.38;;;8.31;96.92
55424;BME280;41294;42.666;23.350;2023-04-23T03:59:38;94939.19;;;8.29;97.48
55424;BME280;41294;42.666;23.350;2023-04-23T04:02:04;94942.94;;;8.40;97.49
55424;BME280;41294;42.666;23.350;2023-04-23T04:04:30;94945.47;;;8.44;97.80
55424;BME280;41294;42.666;23.350;2023-04-23T04:06:56;94944.38;;;8.54;97.08
55424;BME280;41294;42.666;23.350;2023-04-23T04:09:22;94938.34;;;8.78;97.32
55424;BME280;41294;42.666;23.350;2023-04-23T04:11:47;94942.22;;;8.86;96.88
55424;BME280;41294;42.666;23.350;2023-04-23T04:14:13;94948.09;;;8.90;96.80
55424;BME280;41294;42.666;23.350;2023-04-23T04:16:38;94948.03;;;9.02;96.25
55424;BME280;41294;42.666;23.350;2023-04-23T04:19:06;94948.44;;;9.22;94.44
55424;BME280;41294;42.666;23.350;2023-04-23T04:21:31;94944.69;;;10.05;91.00
55424;BME280;41294;42.666;23.350;2023-04-23T04:23:58;94942.03;;;10.54;88.40
55424;BME280;41294;42.666;23.350;2023-04-23T04:26:26;94956.50;;;10.01;88.91
55424;BME280;41294;42.666;23.350;2023-04-23T04:28:51;94951.16;;;10.13;88.12
55424;BME280;41294;42.666;23.350;2023-04-23T04:31:17;94949.72;;;10.78;86.30
55424;BME280;41294;42.666;23.350;2023-04-23T04:33:44;94959.16;;;11.74;81.27
55424;BME280;41294;42.666;23.350;2023-04-23T04:36:10;94947.19;;;11.29;81.69
55424;BME280;41294;42.666;23.350;2023-04-23T04:38:37;94967.84;;;12.07;77.35
55424;BME280;41294;42.666;23.350;2023-04-23T04:41:03;94953.81;;;12.33;75.93
55424;BME280;41294;42.666;23.350;2023-04-23T04:43:29;94960.81;;;12.13;75.98
55424;BME280;41294;42.666;23.350;2023-04-23T04:45:56;94962.19;;;12.32;75.47
55424;BME280;41294;42.666;23.350;2023-04-23T04:48:23;94968.09;;;12.18;76.18
55424;BME280;41294;42.666;23.350;2023-04-23T04:50:48;94974.34;;;12.94;73.41
55424;BME280;41294;42.666;23.350;2023-04-23T04:53:14;94966.72;;;13.11;71.15
55424;BME280;41294;42.666;23.350;2023-04-23T04:55:40;94967.38;;;12.18;75.09
55424;BME280;41294;42.666;23.350;2023-04-23T04:58:05;94966.44;;;11.97;77.19
55424;BME280;41294;42.666;23.350;2023-04-23T05:00:31;94968.59;;;12.40;75.57
55424;BME280;41294;42.666;23.350;2023-04-23T05:02:57;94971.84;;;13.14;72.59
55424;BME280;41294;42.666;23.350;2023-04-23T05:05:24;94969.97;;;12.59;74.31
55424;BME280;41294;42.666;23.350;2023-04-23T05:07:49;94982.38;;;12.44;74.23
55424;BME280;41294;42.666;23.350;2023-04-23T05:10:15;94970.09;;;12.88;73.00
55424;BME280;41294;42.666;23.350;2023-04-23T05:12:41;94971.72;;;13.09;72.23
55424;BME280;41294;42.666;23.350;2023-04-23T05:15:08;94978.25;;;12.43;74.87
55424;BME280;41294;42.666;23.350;2023-04-23T05:17:34;94977.72;;;12.86;74.06
55424;BME280;41294;42.666;23.350;2023-04-23T05:19:59;94982.31;;;12.21;76.04
55424;BME280;41294;42.666;23.350;2023-04-23T05:22:26;94978.66;;;12.18;76.15
55424;BME280;41294;42.666;23.350;2023-04-23T05:24:54;94970.03;;;11.67;79.36
55424;BME280;41294;42.666;23.350;2023-04-23T05:27:20;94966.50;;;11.70;79.79
55424;BME280;41294;42.666;23.350;2023-04-23T05:29:45;94972.28;;;12.01;78.89
55424;BME280;41294;42.666;23.350;2023-04-23T05:32:11;94970.47;;;12.48;76.22
55424;BME280;41294;42.666;23.350;2023-04-23T05:34:38;94980.94;;;13.51;73.94
55424;BME280;41294;42.666;23.350;2023-04-23T05:37:04;94978.28;;;13.36;71.11
55424;BME280;41294;42.666;23.350;2023-04-23T05:39:30;94984.25;;;12.11;77.52
55424;BME280;41294;42.666;23.350;2023-04-23T05:41:55;94977.16;;;13.28;74.18
55424;BME280;41294;42.666;23.350;2023-04-23T05:44:22;94976.44;;;12.58;75.97
55424;BME280;41294;42.666;23.350;2023-04-23T05:46:47;94978.00;;;13.49;70.91
55424;BME280;41294;42.666;23.350;2023-04-23T05:49:13;94984.13;;;12.47;76.00
55424;BME280;41294;42.666;23.350;2023-04-23T05:51:39;94988.59;;;12.32;77.12
55424;BME280;41294;42.666;23.350;2023-04-23T05:54:04;94982.53;;;11.99;78.45
55424;BME280;41294;42.666;23.350;2023-04-23T05:56:30;94986.13;;;11.51;81.02
55424;BME280;41294;42.666;23.350;2023-04-23T05:58:55;94979.97;;;11.63;81.13
55424;BME280;41294;42.666;23.350;2023-04-23T06:01:20;94978.59;;;11.95;78.87
55424;BME280;41294;42.666;23.350;2023-04-23T06:03:46;94988.88;;;11.93;78.92
55424;BME280;41294;42.666;23.350;2023-04-23T06:06:12;94985.94;;;12.88;76.24
55424;BME280;41294;42.666;23.350;2023-04-23T06:08:37;94985.03;;;13.52;72.47
55424;BME280;41294;42.666;23.350;2023-04-23T06:11:04;94982.59;;;13.77;71.45
55424;BME280;41294;42.666;23.350;2023-04-23T06:13:29;94975.09;;;15.47;66.29
55424;BME280;41294;42.666;23.350;2023-04-23T06:15:55;94978.31;;;13.94;69.52
55424;BME280;41294;42.666;23.350;2023-04-23T06:18:21;94981.50;;;13.84;70.82
55424;BME280;41294;42.666;23.350;2023-04-23T06:20:46;94986.38;;;13.47;72.04
55424;BME280;41294;42.666;23.350;2023-04-23T06:23:13;94975.88;;;13.24;74.05
55424;BME280;41294;42.666;23.350;2023-04-23T06:25:39;94969.38;;;13.92;71.20
55424;BME280;41294;42.666;23.350;2023-04-23T06:28:05;94970.75;;;16.00;65.40
55424;BME280;41294;42.666;23.350;2023-04-23T06:30:30;94981.72;;;17.33;60.58
55424;BME280;41294;42.666;23.350;2023-04-23T06:32:56;94975.56;;;15.71;63.34
55424;BME280;41294;42.666;23.350;2023-04-23T06:35:21;94978.91;;;16.22;63.48
55424;BME280;41294;42.666;23.350;2023-04-23T06:37:47;94974.88;;;15.76;62.82
55424;BME280;41294;42.666;23.350;2023-04-23T06:40:13;94975.66;;;16.38;61.89
55424;BME280;41294;42.666;23.350;2023-04-23T06:42:39;94977.78;;;17.12;59.71
55424;BME280;41294;42.666;23.350;2023-04-23T06:45:05;94969.72;;;15.92;62.50
55424;BME280;41294;42.666;23.350;2023-04-23T06:47:31;94977.50;;;15.45;64.59
55424;BME280;41294;42.666;23.350;2023-04-23T06:49:59;94962.66;;;16.15;64.05
55424;BME280;41294;42.666;23.350;2023-04-23T06:52:25;94972.44;;;14.87;66.69
55424;BME280;41294;42.666;23.350;2023-04-23T06:54:51;94968.31;;;15.66;65.42
55424;BME280;41294;42.666;23.350;2023-04-23T06:57:16;94965.22;;;15.48;66.12
55424;BME280;41294;42.666;23.350;2023-04-23T06:59:42;94970.59;;;14.74;68.40
55424;BME280;41294;42.666;23.350;2023-04-23T07:02:07;94973.00;;;15.31;67.38
55424;BME280;41294;42.666;23.350;2023-04-23T07:04:32;94967.03;;;14.77;68.47
55424;BME280;41294;42.666;23.350;2023-04-23T07:06:59;94968.06;;;15.44;66.52
55424;BME280;41294;42.666;23.350;2023-04-23T07:09:26;94968.25;;;16.95;62.51
55424;BME280;41294;42.666;23.350;2023-04-23T07:11:52;94968.81;;;15.95;64.24
55424;BME280;41294;42.666;23.350;2023-04-23T07:14:17;94974.56;;;15.23;68.16
55424;BME280;41294;42.666;23.350;2023-04-23T07:16:42;94971.19;;;15.68;69.27
55424;BME280;41294;42.666;23.350;2023-04-23T07:19:08;94972.06;;;15.85;65.49
55424;BME280;41294;42.666;23.350;2023-04-23T07:21:33;94971.34;;;15.14;67.88
55424;BME280;41294;42.666;23.350;2023-04-23T07:23:59;94973.03;;;15.82;64.57
55424;BME280;41294;42.666;23.350;2023-04-23T07:26:27;94972.59;;;14.98;66.66
55424;BME280;41294;42.666;23.350;2023-04-23T07:28:52;94968.59;;;16.30;64.67
55424;BME280;41294;42.666;23.350;2023-04-23T07:31:18;94957.25;;;15.73;65.39
55424;BME280;41294;42.666;23.350;2023-04-23T07:33:44;94968.13;;;17.20;61.53
55424;BME280;41294;42.666;23.350;2023-04-23T07:36:10;94963.22;;;18.59;56.51
55424;BME280;41294;42.666;23.350;2023-04-23T07:38:35;94958.34;;;18.57;55.18
55424;BME280;41294;42.666;23.350;2023-04-23T07:41:01;94957.03;;;19.13;55.37
55424;BME280;41294;42.666;23.350;2023-04-23T07:43:26;94960.03;;;17.62;57.91
55424;BME280;41294;42.666;23.350;2023-04-23T07:45:52;94962.50;;;18.04;56.82
55424;BME280;41294;42.666;23.350;2023-04-23T07:48:17;94957.03;;;19.59;54.07
55424;BME280;41294;42.666;23.350;2023-04-23T07:50:42;94958.66;;;19.73;51.63
55424;BME280;41294;42.666;23.350;2023-04-23T07:53:08;94950.31;;;19.41;52.81
55424;BME280;41294;42.666;23.350;2023-04-23T07:55:33;94963.38;;;18.88;55.08
55424;BME280;41294;42.666;23.350;2023-04-23T07:57:59;94956.28;;;20.04;52.51
55424;BME280;41294;42.666;23.350;2023-04-23T08:00:24;94957.38;;;17.62;56.77
55424;BME280;41294;42.666;23.350;2023-04-23T08:02:50;94957.34;;;16.87;61.18
55424;BME280;41294;42.666;23.350;2023-04-23T08:05:17;94947.63;;;18.85;53.75
55424;BME280;41294;42.666;23.350;2023-04-23T08:07:42;94960.28;;;16.95;60.23
55424;BME280;41294;42.666;23.350;2023-04-23T08:10:07;94953.00;;;18.68;55.41
55424;BME280;41294;42.666;23.350;2023-04-23T08:12:33;94947.84;;;18.92;54.61
55424;BME280;41294;42.666;23.350;2023-04-23T08:15:00;94955.06;;;19.08;53.03
55424;BME280;41294;42.666;23.350;2023-04-23T08:17:26;94949.41;;;19.74;52.00
55424;BME280;41294;42.666;23.350;2023-04-23T08:19:51;94949.53;;;18.95;52.66
55424;BME280;41294;42.666;23.350;2023-04-23T08:22:17;94945.53;;;18.50;55.64
55424;BME280;41294;42.666;23.350;2023-04-23T08:24:43;94944.13;;;18.22;55.63
55424;BME280;41294;42.666;23.350;2023-04-23T08:27:09;94947.50;;;18.28;55.52
55424;BME280;41294;42.666;23.350;2023-04-23T08:29:35;94954.94;;;16.95;59.21
55424;BME280;41294;42.666;23.350;2023-04-23T08:32:00;94945.97;;;16.87;61.01
55424;BME280;41294;42.666;23.350;2023-04-23T08:34:26;94937.53;;;17.63;58.67
55424;BME280;41294;42.666;23.350;2023-04-23T08:36:51;94945.78;;;17.98;56.32
55424;BME280;41294;42.666;23.350;2023-04-23T08:39:16;94934.88;;;18.07;56.62
55424;BME280;41294;42.666;23.350;2023-04-23T08:41:43;94929.78;;;18.36;55.97
55424;BME280;41294;42.666;23.350;2023-04-23T08:44:17;94927.94;;;19.55;53.29
55424;BME280;41294;42.666;23.350;2023-04-23T08:46:43;94932.09;;;20.44;50.82
55424;BME280;41294;42.666;23.350;2023-04-23T08:49:13;94934.22;;;20.27;48.79
55424;BME280;41294;42.666;23.350;2023-04-23T08:51:47;94931.50;;;18.01;55.08
55424;BME280;41294;42.666;23.350;2023-04-23T08:54:17;94928.13;;;16.93;57.58
55424;BME280;41294;42.666;23.350;2023-04-23T08:56:47;94922.28;;;18.13;55.77
55424;BME280;41294;42.666;23.350;2023-04-23T08:59:21;94918.91;;;18.28;54.09
55424;BME280;41294;42.666;23.350;2023-04-23T09:01:49;94933.19;;;16.91;57.03
55424;BME280;41294;42.666;23.350;2023-04-23T09:04:15;94923.41;;;17.30;57.28
55424;BME280;41294;42.666;23.350;2023-04-23T09:06:42;94910.34;;;19.30;53.00
55424;BME280;41294;42.666;23.350;2023-04-23T09:09:08;94916.38;;;18.74;52.59
55424;BME280;41294;42.666;23.350;2023-04-23T09:11:36;94918.66;;;17.72;54.42
55424;BME280;41294;42.666;23.350;2023-04-23T09:14:05;94912.34;;;17.91;54.26
55424;BME280;41294;42.666;23.350;2023-04-23T09:16:30;94906.81;;;17.84;55.67
55424;BME280;41294;42.666;23.350;2023-04-23T09:18:57;94914.38;;;17.00;55.80
55424;BME280;41294;42.666;23.350;2023-04-23T09:21:26;94899.53;;;18.22;53.72
55424;BME280;41294;42.666;23.350;2023-04-23T09:23:53;94910.63;;;18.48;52.79
55424;BME280;41294;42.666;23.350;2023-04-23T09:26:19;94910.66;;;17.72;55.22
55424;BME280;41294;42.666;23.350;2023-04-23T09:28:48;94909.47;;;19.17;52.21
55424;BME280;41294;42.666;23.350;2023-04-23T09:31:19;94908.56;;;19.44;49.89
55424;BME280;41294;42.666;23.350;2023-04-23T09:33:50;94905.84;;;19.03;51.20
55424;BME280;41294;42.666;23.350;2023-04-23T09:36:19;94900.44;;;19.20;53.02
55424;BME280;41294;42.666;23.350;2023-04-23T09:38:45;94893.22;;;19.55;51.72
55424;BME280;41294;42.666;23.350;2023-04-23T09:41:26;94886.72;;;20.09;49.63
55424;BME280;41294;42.666;23.350;2023-04-23T09:43:55;94875.03;;;20.12;48.91
55424;BME280;41294;42.666;23.350;2023-04-23T09:46:38;94878.94;;;20.83;48.90
55424;BME280;41294;42.666;23.350;2023-04-23T09:49:05;94870.97;;;20.54;46.60
55424;BME280;41294;42.666;23.350;2023-04-23T09:51:38;94875.25;;;19.50;49.28
55424;BME280;41294;42.666;23.350;2023-04-23T09:54:13;94873.66;;;18.85;48.27
55424;BME280;41294;42.666;23.350;2023-04-23T09:56:40;94867.16;;;18.70;50.13
55424;BME280;41294;42.666;23.350;2023-04-23T09:59:29;94865.63;;;18.07;51.63
55424;BME280;41294;42.666;23.350;2023-04-23T10:01:55;94869.13;;;18.69;51.45
55424;BME280;41294;42.666;23.350;2023-04-23T10:04:23;94855.91;;;19.39;49.02
55424;BME280;41294;42.666;23.350;2023-04-23T10:06:56;94865.06;;;20.37;47.88
55424;BME280;41294;42.666;23.350;2023-04-23T10:09:23;94862.06;;;20.46;46.51
55424;BME280;41294;42.666;23.350;2023-04-23T10:11:57;94857.53;;;20.83;45.14
55424;BME280;41294;42.666;23.350;2023-04-23T10:14:24;94861.44;;;21.19;44.83
55424;BME280;41294;42.666;23.350;2023-04-23T10:16:52;94852.25;;;19.77;45.95
55424;BME280;41294;42.666;23.350;2023-04-23T10:19:22;94846.34;;;19.83;46.03
55424;BME280;41294;42.666;23.350;2023-04-23T10:22:01;94846.16;;;20.77;43.35
55424;BME280;41294;42.666;23.350;2023-04-23T10:24:34;94836.00;;;18.99;46.64
55424;BME280;41294;42.666;23.350;2023-04-23T10:27:01;94841.94;;;18.71;45.77
55424;BME280;41294;42.666;23.350;2023-04-23T10:29:34;94830.53;;;18.76;46.72
55424;BME280;41294;42.666;23.350;2023-04-23T10:32:03;94824.13;;;20.23;45.25
55424;BME280;41294;42.666;23.350;2023-04-23T10:34:30;94821.69;;;19.43;44.57
55424;BME280;41294;42.666;23.350;2023-04-23T10:36:57;94816.91;;;18.90;45.47
55424;BME280;41294;42.666;23.350;2023-04-23T10:39:33;94819.56;;;19.65;44.31
55424;BME280;41294;42.666;23.350;2023-04-23T10:42:00;94822.00;;;18.20;48.98
55424;BME280;41294;42.666;23.350;2023-04-23T10:44:36;94818.94;;;18.73;47.41
55424;BME280;41294;42.666;23.350;2023-04-23T10:47:03;94818.72;;;19.76;44.17
55424;BME280;41294;42.666;23.350;2023-04-23T10:49:30;94814.88;;;20.00;44.96
55424;BME280;41294;42.666;23.350;2023-04-23T10:54:30;94800.41;;;20.14;41.95
55424;BME280;41294;42.666;23.350;2023-04-23T10:57:03;94790.50;;;21.25;41.55
55424;BME280;41294;42.666;23.350;2023-04-23T10:59:31;94797.75;;;21.12;40.79
55424;BME280;41294;42.666;23.350;2023-04-23T11:01:58;94794.03;;;20.41;42.26
55424;BME280;41294;42.666;23.350;2023-04-23T11:04:25;94795.06;;;19.85;41.67
55424;BME280;41294;42.666;23.350;2023-04-23T11:06:57;94792.75;;;18.66;42.55
55424;BME280;41294;42.666;23.350;2023-04-23T11:09:47;94783.22;;;19.22;42.60
55424;BME280;41294;42.666;23.350;2023-04-23T11:14:57;94772.44;;;19.91;40.22
55424;BME280;41294;42.666;23.350;2023-04-23T11:20:17;94756.03;;;19.23;41.79
55424;BME280;41294;42.666;23.350;2023-04-23T11:22:44;94760.63;;;18.88;41.63
55424;BME280;41294;42.666;23.350;2023-04-23T11:25:12;94759.44;;;19.53;40.92
55424;BME280;41294;42.666;23.350;2023-04-23T11:27:40;94756.41;;;19.68;41.45
55424;BME280;41294;42.666;23.350;2023-04-23T11:30:19;94750.38;;;19.62;40.99
55424;BME280;41294;42.666;23.350;2023-04-23T11:32:47;94752.38;;;19.26;40.66
55424;BME280;41294;42.666;23.350;2023-04-23T11:35:17;94748.72;;;20.06;40.00
55424;BME280;41294;42.666;23.350;2023-04-23T11:37:44;94745.53;;;20.50;38.93
55424;BME280;41294;42.666;23.350;2023-04-23T11:40:11;94753.06;;;20.52;37.10
55424;BME280;41294;42.666;23.350;2023-04-23T11:42:48;94741.88;;;19.63;40.10
55424;BME280;41294;42.666;23.350;2023-04-23T11:45:18;94741.25;;;19.52;40.97
55424;BME280;41294;42.666;23.350;2023-04-23T11:47:45;94737.50;;;19.01;41.04
55424;BME280;41294;42.666;23.350;2023-04-23T11:50:18;94739.81;;;19.21;40.91
55424;BME280;41294;42.666;23.350;2023-04-23T11:52:44;94733.03;;;18.80;39.97
55424;BME280;41294;42.666;23.350;2023-04-23T11:55:11;94719.09;;;18.98;38.79
55424;BME280;41294;42.666;23.350;2023-04-23T11:57:45;94725.75;;;18.81;37.52
55424;BME280;41294;42.666;23.350;2023-04-23T12:02:54;94714.88;;;19.43;36.39
55424;BME280;41294;42.666;23.350;2023-04-23T12:05:28;94716.59;;;20.12;37.26
55424;BME280;41294;42.666;23.350;2023-04-23T12:08:14;94712.97;;;21.01;36.07
55424;BME280;41294;42.666;23.350;2023-04-23T12:10:45;94711.19;;;21.22;34.07
55424;BME280;41294;42.666;23.350;2023-04-23T12:13:15;94722.69;;;20.49;34.53
55424;BME280;41294;42.666;23.350;2023-04-23T12:15:52;94716.28;;;20.39;35.87
55424;BME280;41294;42.666;23.350;2023-04-23T12:20:54;94714.38;;;19.44;37.74
55424;BME280;41294;42.666;23.350;2023-04-23T12:23:26;94707.59;;;19.91;36.72
55424;BME280;41294;42.666;23.350;2023-04-23T12:25:55;94706.47;;;20.05;36.08
55424;BME280;41294;42.666;23.350;2023-04-23T12:28:24;94701.59;;;20.27;35.75
55424;BME280;41294;42.666;23.350;2023-04-23T12:30:50;94701.34;;;20.62;35.42
55424;BME280;41294;42.666;23.350;2023-04-23T12:33:16;94693.19;;;20.73;34.98
55424;BME280;41294;42.666;23.350;2023-04-23T12:35:49;94694.84;;;20.94;35.27
55424;BME280;41294;42.666;23.350;2023-04-23T12:38:27;94685.53;;;20.64;34.91
55424;BME280;41294;42.666;23.350;2023-04-23T12:40:55;94691.50;;;19.49;35.00
55424;BME280;41294;42.666;23.350;2023-04-23T12:43:21;94684.03;;;19.66;36.55
55424;BME280;41294;42.666;23.350;2023-04-23T12:45:46;94683.13;;;19.82;35.83
55424;BME280;41294;42.666;23.350;2023-04-23T12:48:12;94686.72;;;19.66;35.70
55424;BME280;41294;42.666;23.350;2023-04-23T12:50:38;94687.22;;;19.11;37.45
55424;BME280;41294;42.666;23.350;2023-04-23T12:53:04;94686.03;;;18.72;37.55
55424;BME280;41294;42.666;23.350;2023-04-23T12:55:29;94682.75;;;18.90;36.40
55424;BME280;41294;42.666;23.350;2023-04-23T12:57:55;94680.13;;;18.84;36.97
55424;BME280;41294;42.666;23.350;2023-04-23T13:00:21;94681.81;;;19.22;37.21
55424;BME280;41294;42.666;23.350;2023-04-23T13:02:47;94678.59;;;19.53;36.11
55424;BME280;41294;42.666;23.350;2023-04-23T13:05:12;94683.00;;;19.74;36.57